createdAt,value
2018-09-18T00:00:17.639Z,9.27
2018-09-18T00:02:44.936Z,10.40
2018-09-18T00:05:12.144Z,10.10
2018-09-18T00:07:39.381Z,9.73
2018-09-18T00:10:06.706Z,10.43
2018-09-18T00:12:33.904Z,9.20
2018-09-18T00:15:01.188Z,10.10
2018-09-18T00:17:28.414Z,9.10
2018-09-18T00:19:55.620Z,9.70
2018-09-18T00:22:22.961Z,9.63
2018-09-18T00:24:50.256Z,9.20
2018-09-18T00:27:17.463Z,9.20
2018-09-18T00:29:44.694Z,10.37
2018-09-18T00:32:11.934Z,10.03
2018-09-18T00:34:39.146Z,9.23
2018-09-18T00:37:06.386Z,10.50
2018-09-18T00:39:33.614Z,9.93
2018-09-18T00:42:00.816Z,10.87
2018-09-18T00:44:28.204Z,9.97
2018-09-18T00:46:55.434Z,10.63
2018-09-18T00:49:23.675Z,9.60
2018-09-18T00:51:50.850Z,9.30
2018-09-18T00:54:18.173Z,9.93
2018-09-18T00:56:45.385Z,9.83
2018-09-18T00:59:12.689Z,10.00
2018-09-18T01:01:39.930Z,9.60
2018-09-18T01:04:07.199Z,8.87
2018-09-18T01:06:34.466Z,8.97
2018-09-18T01:09:01.689Z,9.70
2018-09-18T01:11:28.949Z,10.20
2018-09-18T01:13:56.198Z,10.50
2018-09-18T01:16:23.444Z,10.30
2018-09-18T01:18:50.661Z,9.50
2018-09-18T01:21:17.897Z,8.97
2018-09-18T01:23:45.156Z,9.13
2018-09-18T01:26:12.404Z,9.10
2018-09-18T01:28:39.621Z,9.27
2018-09-18T01:31:06.838Z,8.83
2018-09-18T01:33:34.444Z,9.10
2018-09-18T01:36:01.742Z,8.77
2018-09-18T01:38:28.976Z,9.97
2018-09-18T01:40:56.246Z,8.37
2018-09-18T01:43:23.504Z,8.80
2018-09-18T01:45:51.023Z,9.33
2018-09-18T01:48:18.272Z,9.03
2018-09-18T01:50:45.523Z,9.00
2018-09-18T01:53:12.721Z,8.60
2018-09-18T01:55:40.005Z,11.30
2018-09-18T01:58:07.189Z,9.70
2018-09-18T02:00:34.588Z,9.57
2018-09-18T02:03:01.850Z,7.90
2018-09-18T02:05:29.088Z,8.90
2018-09-18T02:07:56.328Z,11.00
2018-09-18T02:10:23.512Z,10.57
2018-09-18T02:12:50.774Z,10.20
2018-09-18T02:15:18.108Z,10.67
2018-09-18T02:17:45.364Z,8.83
2018-09-18T02:20:12.608Z,10.33
2018-09-18T02:22:39.777Z,10.33
2018-09-18T02:25:07.004Z,9.93
2018-09-18T02:27:34.253Z,10.37
2018-09-18T02:30:01.541Z,9.70
2018-09-18T02:32:28.785Z,9.40
2018-09-18T02:34:56.138Z,9.83
2018-09-18T02:37:23.333Z,10.27
2018-09-18T02:39:50.589Z,10.13
2018-09-18T02:42:18.562Z,10.60
2018-09-18T02:44:45.841Z,10.90
2018-09-18T02:47:13.038Z,8.77
2018-09-18T02:49:40.316Z,10.70
2018-09-18T02:52:07.502Z,10.40
2018-09-18T02:54:34.748Z,12.03
2018-09-18T02:57:02.020Z,11.37
2018-09-18T02:59:29.330Z,9.80
2018-09-18T03:01:56.572Z,9.33
2018-09-18T03:04:23.773Z,9.17
2018-09-18T03:06:51.009Z,9.30
2018-09-18T03:09:18.230Z,9.10
2018-09-18T03:11:45.455Z,9.03
2018-09-18T03:14:12.683Z,9.63
2018-09-18T03:16:39.949Z,9.63
2018-09-18T03:19:07.286Z,10.50
2018-09-18T03:21:34.495Z,10.00
2018-09-18T03:24:01.813Z,9.73
2018-09-18T03:26:29.101Z,9.97
2018-09-18T03:28:56.362Z,8.20
2018-09-18T03:31:23.606Z,9.27
2018-09-18T03:33:50.792Z,10.30
2018-09-18T03:36:17.989Z,9.33
2018-09-18T03:38:45.231Z,10.43
2018-09-18T03:41:12.438Z,9.27
2018-09-18T03:43:39.653Z,10.27
2018-09-18T03:46:06.893Z,9.20
2018-09-18T03:48:34.086Z,9.47
2018-09-18T03:51:01.380Z,8.50
2018-09-18T03:53:28.667Z,9.90
2018-09-18T03:55:56.581Z,9.50
2018-09-18T03:58:23.848Z,10.67
2018-09-18T04:00:51.117Z,9.67
2018-09-18T04:03:18.341Z,8.90
2018-09-18T04:05:45.517Z,9.70
2018-09-18T04:08:12.769Z,9.50
2018-09-18T04:10:39.961Z,9.10
2018-09-18T04:13:07.476Z,7.57
2018-09-18T04:15:34.632Z,8.57
2018-09-18T04:18:01.873Z,9.57
2018-09-18T04:20:29.166Z,8.30
2018-09-18T04:22:56.380Z,9.30
2018-09-18T04:25:23.613Z,10.73
2018-09-18T04:27:50.867Z,9.40
2018-09-18T04:30:18.102Z,10.33
2018-09-18T04:32:45.397Z,9.07
2018-09-18T04:35:12.690Z,8.77
2018-09-18T04:37:39.895Z,10.00
2018-09-18T04:40:07.472Z,9.07
2018-09-18T04:42:34.704Z,10.10
2018-09-18T04:45:01.943Z,9.20
2018-09-18T04:47:29.133Z,10.30
2018-09-18T04:49:56.290Z,11.57
2018-09-18T04:52:23.503Z,9.60
2018-09-18T04:54:50.723Z,9.93
2018-09-18T04:57:17.966Z,9.00
2018-09-18T04:59:45.096Z,8.93
2018-09-18T05:02:12.394Z,9.67
2018-09-18T05:04:39.438Z,9.40
2018-09-18T05:07:06.709Z,8.83
2018-09-18T05:09:33.861Z,10.53
2018-09-18T05:12:01.017Z,9.37
2018-09-18T05:14:28.256Z,10.17
2018-09-18T05:16:55.416Z,8.53
2018-09-18T05:19:22.520Z,9.33
2018-09-18T05:21:49.696Z,9.00
2018-09-18T05:24:16.804Z,9.20
2018-09-18T05:26:43.986Z,10.50
2018-09-18T05:29:11.123Z,8.90
2018-09-18T05:31:38.622Z,8.37
2018-09-18T05:34:06.308Z,9.03
2018-09-18T05:36:33.584Z,9.33
2018-09-18T05:39:00.775Z,9.67
2018-09-18T05:41:28.067Z,7.33
2018-09-18T05:43:55.276Z,8.77
2018-09-18T05:46:22.452Z,9.07
2018-09-18T05:48:49.639Z,9.73
2018-09-18T05:51:16.815Z,8.80
2018-09-18T05:53:44.027Z,10.70
2018-09-18T05:56:11.220Z,9.70
2018-09-18T05:58:38.479Z,9.43
2018-09-18T06:01:05.663Z,9.57
2018-09-18T06:03:32.855Z,9.87
2018-09-18T06:06:00.056Z,11.10
2018-09-18T06:08:27.388Z,11.67
2018-09-18T06:10:54.564Z,11.10
2018-09-18T06:13:21.728Z,10.47
2018-09-18T06:15:48.875Z,10.33
2018-09-18T06:18:16.118Z,12.10
2018-09-18T06:20:43.955Z,11.40
2018-09-18T06:23:11.231Z,12.60
2018-09-18T06:25:38.565Z,12.90
2018-09-18T06:28:05.835Z,11.90
2018-09-18T06:30:33.116Z,13.10
2018-09-18T06:33:00.328Z,13.03
2018-09-18T06:35:27.453Z,13.60
2018-09-18T06:37:54.669Z,12.87
2018-09-18T06:40:21.859Z,12.80
2018-09-18T06:42:49.040Z,12.40
2018-09-18T06:45:16.320Z,13.93
2018-09-18T06:47:43.483Z,14.70
2018-09-18T06:50:10.683Z,16.53
2018-09-18T06:52:37.977Z,14.70
2018-09-18T06:55:05.321Z,16.50
2018-09-18T06:57:32.496Z,15.97
2018-09-18T06:59:59.730Z,15.07
2018-09-18T07:02:26.857Z,15.07
2018-09-18T07:04:54.060Z,15.33
2018-09-18T07:07:21.446Z,15.63
2018-09-18T07:09:48.571Z,14.70
2018-09-18T07:12:15.972Z,14.93
2018-09-18T07:14:43.548Z,16.90
2018-09-18T07:17:10.741Z,14.17
2018-09-18T07:19:38.461Z,14.40
2018-09-18T07:22:05.860Z,16.10
2018-09-18T07:24:32.988Z,14.90
2018-09-18T07:27:00.265Z,15.50
2018-09-18T07:29:27.573Z,14.83
2018-09-18T07:31:54.722Z,15.20
2018-09-18T07:34:22.089Z,14.10
2018-09-18T07:36:49.305Z,15.27
2018-09-18T07:39:16.521Z,15.03
2018-09-18T07:41:43.779Z,15.10
2018-09-18T07:44:10.976Z,15.27
2018-09-18T07:46:38.352Z,14.27
2018-09-18T07:49:05.707Z,12.70
2018-09-18T07:51:33.642Z,13.33
2018-09-18T07:54:01.318Z,12.33
2018-09-18T07:56:29.024Z,12.80
2018-09-18T07:58:56.222Z,13.90
2018-09-18T08:01:23.416Z,13.03
2018-09-18T08:03:50.883Z,14.60
2018-09-18T08:06:18.129Z,13.97
2018-09-18T08:08:45.361Z,12.13
2018-09-18T08:11:12.600Z,12.47
2018-09-18T08:13:39.949Z,12.90
2018-09-18T08:16:07.300Z,11.97
2018-09-18T08:18:34.516Z,12.60
2018-09-18T08:21:01.684Z,12.80
2018-09-18T08:23:28.913Z,12.73
2018-09-18T08:25:56.116Z,11.70
2018-09-18T08:28:23.252Z,13.60
2018-09-18T08:30:50.535Z,12.60
2018-09-18T08:33:17.814Z,13.63
2018-09-18T08:35:44.987Z,12.50
2018-09-18T08:38:12.284Z,14.17
2018-09-18T08:40:39.428Z,13.20
2018-09-18T08:43:06.688Z,14.03
2018-09-18T08:45:34.055Z,12.43
2018-09-18T08:48:01.347Z,12.60
2018-09-18T08:50:28.516Z,12.90
2018-09-18T08:52:55.744Z,13.10
2018-09-18T08:55:22.891Z,12.80
2018-09-18T08:57:50.182Z,11.90
2018-09-18T09:00:17.413Z,14.00
2018-09-18T09:02:44.562Z,11.83
2018-09-18T09:05:11.773Z,12.13
2018-09-18T09:07:39.154Z,12.87
2018-09-18T09:10:06.442Z,12.70
2018-09-18T09:12:33.729Z,12.80
2018-09-18T09:15:01.116Z,13.07
2018-09-18T09:17:28.284Z,12.83
2018-09-18T09:19:55.668Z,12.40
2018-09-18T09:22:22.894Z,13.50
2018-09-18T09:24:50.025Z,12.53
2018-09-18T09:27:17.273Z,14.73
2018-09-18T09:29:44.670Z,14.70
2018-09-18T09:32:11.781Z,12.80
2018-09-18T09:34:39.028Z,12.63
2018-09-18T09:37:06.237Z,13.23
2018-09-18T09:39:33.620Z,13.93
2018-09-18T09:42:00.813Z,13.20
2018-09-18T09:44:27.991Z,13.17
2018-09-18T09:46:55.192Z,12.70
2018-09-18T09:49:22.372Z,12.50
2018-09-18T09:51:49.577Z,14.00
2018-09-18T09:54:16.793Z,12.30
2018-09-18T09:56:44.030Z,11.20
2018-09-18T09:59:11.211Z,12.27
2018-09-18T10:01:42.248Z,13.10
2018-09-18T10:04:09.556Z,12.10
2018-09-18T10:06:36.821Z,12.20
2018-09-18T10:09:06.831Z,11.90
2018-09-18T10:11:34.030Z,11.07
2018-09-18T10:14:01.366Z,12.07
2018-09-18T10:16:28.524Z,11.90
2018-09-18T10:18:55.713Z,10.77
2018-09-18T10:21:23.087Z,12.37
2018-09-18T10:23:50.206Z,11.70
2018-09-18T10:26:17.687Z,11.67
2018-09-18T10:28:45.053Z,11.70
2018-09-18T10:31:12.228Z,10.83
2018-09-18T10:33:39.469Z,10.80
2018-09-18T10:36:06.725Z,11.57
2018-09-18T10:38:33.880Z,11.33
2018-09-18T10:41:01.302Z,10.90
2018-09-18T10:43:28.428Z,11.20
2018-09-18T10:45:55.779Z,10.37
2018-09-18T10:48:23.120Z,10.80
2018-09-18T10:50:50.292Z,8.97
2018-09-18T10:53:17.511Z,11.40
2018-09-18T10:55:44.729Z,11.00
2018-09-18T10:58:11.913Z,10.00
2018-09-18T11:00:39.350Z,10.07
2018-09-18T11:03:06.537Z,9.50
2018-09-18T11:05:33.733Z,9.23
2018-09-18T11:08:01.138Z,9.67
2018-09-18T11:10:28.535Z,8.97
2018-09-18T11:12:55.635Z,9.30
2018-09-18T11:15:23.053Z,8.70
2018-09-18T11:17:50.206Z,7.80
2018-09-18T11:20:17.428Z,8.00
2018-09-18T11:22:44.621Z,7.80
2018-09-18T11:25:11.891Z,8.33
2018-09-18T11:27:39.015Z,7.87
2018-09-18T11:30:06.328Z,9.20
2018-09-18T11:32:33.516Z,8.00
2018-09-18T11:35:00.925Z,8.57
2018-09-18T11:37:28.163Z,8.93
2018-09-18T11:39:55.309Z,7.77
2018-09-18T11:42:22.536Z,8.40
2018-09-18T11:44:49.788Z,7.77
2018-09-18T11:47:17.155Z,8.20
2018-09-18T11:49:44.409Z,8.97
2018-09-18T11:52:11.701Z,8.17
2018-09-18T11:54:38.921Z,8.07
2018-09-18T11:57:06.245Z,7.47
2018-09-18T11:59:33.433Z,7.00
2018-09-18T12:02:00.573Z,7.80
2018-09-18T12:04:27.939Z,6.73
2018-09-18T12:06:55.216Z,7.07
2018-09-18T12:09:22.372Z,6.10
2018-09-18T12:11:49.641Z,7.17
2018-09-18T12:14:16.889Z,7.40
2018-09-18T12:16:44.236Z,7.20
2018-09-18T12:19:11.522Z,8.13
2018-09-18T12:21:38.671Z,8.20
2018-09-18T12:24:05.878Z,8.57
2018-09-18T12:26:33.031Z,7.90
2018-09-18T12:29:00.246Z,8.57
2018-09-18T12:31:27.525Z,8.20
2018-09-18T12:33:54.720Z,8.50
2018-09-18T12:36:21.936Z,8.80
2018-09-18T12:38:49.233Z,8.60
2018-09-18T12:41:16.474Z,9.30
2018-09-18T12:43:43.648Z,8.60
2018-09-18T12:46:10.895Z,8.87
2018-09-18T12:48:38.130Z,8.93
2018-09-18T12:51:05.363Z,7.43
2018-09-18T12:53:32.594Z,7.80
2018-09-18T12:56:00.191Z,8.40
2018-09-18T12:58:27.452Z,7.83
2018-09-18T13:00:54.718Z,8.73
2018-09-18T13:03:24.199Z,8.70
2018-09-18T13:05:51.429Z,8.70
2018-09-18T13:08:18.644Z,8.60
2018-09-18T13:10:45.837Z,7.90
2018-09-18T13:13:13.109Z,8.27
2018-09-18T13:15:40.381Z,8.70
2018-09-18T13:18:07.580Z,8.53
2018-09-18T13:20:34.761Z,7.43
2018-09-18T13:23:02.101Z,9.20
2018-09-18T13:25:29.315Z,8.50
2018-09-18T13:27:56.588Z,8.17
2018-09-18T13:30:23.737Z,7.83
2018-09-18T13:32:51.142Z,8.00
2018-09-18T13:35:18.506Z,8.53
2018-09-18T13:37:45.715Z,7.83
2018-09-18T13:40:12.978Z,7.60
2018-09-18T13:42:40.458Z,7.90
2018-09-18T13:45:07.716Z,7.80
2018-09-18T13:47:34.990Z,7.40
2018-09-18T13:50:02.328Z,7.60
2018-09-18T13:52:29.614Z,7.80
2018-09-18T13:54:56.894Z,8.30
2018-09-18T13:57:24.314Z,8.27
2018-09-18T13:59:51.734Z,7.70
2018-09-18T14:02:19.050Z,7.70
2018-09-18T14:04:46.527Z,8.10
2018-09-18T14:07:13.850Z,7.37
2018-09-18T14:09:41.201Z,8.77
2018-09-18T14:12:09.454Z,6.80
2018-09-18T14:14:36.738Z,7.07
2018-09-18T14:17:03.926Z,7.30
2018-09-18T14:19:31.236Z,7.83
2018-09-18T14:21:58.474Z,6.63
2018-09-18T14:24:25.742Z,6.20
2018-09-18T14:26:53.358Z,6.47
2018-09-18T14:29:20.665Z,7.00
2018-09-18T14:31:47.936Z,5.90
2018-09-18T14:34:15.185Z,6.40
2018-09-18T14:36:42.420Z,5.90
2018-09-18T14:39:10.666Z,6.70
2018-09-18T14:41:38.579Z,5.70
2018-09-18T14:44:05.857Z,5.63
2018-09-18T14:46:33.155Z,5.80
2018-09-18T14:49:00.469Z,6.40
2018-09-18T14:51:27.696Z,6.87
2018-09-18T14:53:54.905Z,5.93
2018-09-18T14:56:22.182Z,6.20
2018-09-18T14:58:49.434Z,6.00
2018-09-18T15:01:17.472Z,6.40
2018-09-18T15:03:44.887Z,5.70
2018-09-18T15:06:12.198Z,5.97
2018-09-18T15:08:39.608Z,6.10
2018-09-18T15:11:06.980Z,6.00
2018-09-18T15:13:34.248Z,5.23
2018-09-18T15:16:01.505Z,6.60
2018-09-18T15:18:28.881Z,5.17
2018-09-18T15:20:56.347Z,5.70
2018-09-18T15:23:23.609Z,5.80
2018-09-18T15:25:51.016Z,6.27
2018-09-18T15:28:18.233Z,6.33
2018-09-18T15:30:45.536Z,6.30
2018-09-18T15:33:12.893Z,5.60
2018-09-18T15:35:40.154Z,6.03
2018-09-18T15:38:07.609Z,5.50
2018-09-18T15:40:34.944Z,5.70
2018-09-18T15:43:02.316Z,5.70
2018-09-18T15:45:29.534Z,5.57
2018-09-18T15:47:56.842Z,6.17
2018-09-18T15:50:24.064Z,5.83
2018-09-18T15:52:51.476Z,5.57
2018-09-18T15:55:19.014Z,6.07
2018-09-18T15:57:46.331Z,5.90
2018-09-18T16:00:13.558Z,7.03
2018-09-18T16:02:40.821Z,5.70
2018-09-18T16:05:08.100Z,6.83
2018-09-18T16:07:35.458Z,6.53
2018-09-18T16:10:02.890Z,6.40
2018-09-18T16:12:30.117Z,6.90
2018-09-18T16:14:57.489Z,6.70
2018-09-18T16:17:24.637Z,6.60
2018-09-18T16:19:51.944Z,6.07
2018-09-18T16:22:19.418Z,7.40
2018-09-18T16:24:47.537Z,6.90
2018-09-18T16:27:14.737Z,5.97
2018-09-18T16:29:41.965Z,6.40
2018-09-18T16:32:09.898Z,7.03
2018-09-18T16:34:37.185Z,6.70
2018-09-18T16:37:04.588Z,6.27
2018-09-18T16:39:31.898Z,6.77
2018-09-18T16:41:59.194Z,6.70
2018-09-18T16:44:26.648Z,6.67
2018-09-18T16:46:54.013Z,6.57
2018-09-18T16:49:22.176Z,7.20
2018-09-18T16:51:50.405Z,8.00
2018-09-18T16:54:17.875Z,7.77
2018-09-18T16:56:45.086Z,7.80
2018-09-18T16:59:12.402Z,7.20
2018-09-18T17:01:39.792Z,7.10
2018-09-18T17:04:07.025Z,7.73
2018-09-18T17:06:34.520Z,7.80
2018-09-18T17:09:01.764Z,8.23
2018-09-18T17:11:29.087Z,9.73
2018-09-18T17:13:56.305Z,9.20
2018-09-18T17:16:23.650Z,8.50
2018-09-18T17:18:50.865Z,8.37
2018-09-18T17:21:18.161Z,9.77
2018-09-18T17:23:45.526Z,8.30
2018-09-18T17:26:12.846Z,8.23
2018-09-18T17:28:40.406Z,8.07
2018-09-18T17:31:07.801Z,7.67
2018-09-18T17:33:35.184Z,7.87
2018-09-18T17:36:02.615Z,7.90
2018-09-18T17:38:30.050Z,9.07
2018-09-18T17:40:57.341Z,9.33
2018-09-18T17:43:24.748Z,9.20
2018-09-18T17:45:52.153Z,9.10
2018-09-18T17:48:19.465Z,10.77
2018-09-18T17:50:46.849Z,9.53
2018-09-18T17:53:14.251Z,10.30
2018-09-18T17:55:41.481Z,9.40
2018-09-18T17:58:08.755Z,11.00
2018-09-18T18:00:36.036Z,9.73
2018-09-18T18:03:03.790Z,10.07
2018-09-18T18:05:31.198Z,9.80
2018-09-18T18:07:58.462Z,9.80
2018-09-18T18:10:25.697Z,9.10
2018-09-18T18:12:52.936Z,9.53
2018-09-18T18:15:20.227Z,8.43
2018-09-18T18:17:47.657Z,10.37
2018-09-18T18:20:15.034Z,9.47
2018-09-18T18:22:42.259Z,9.77
2018-09-18T18:25:09.671Z,8.80
2018-09-18T18:27:37.103Z,9.77
2018-09-18T18:30:05.052Z,9.90
2018-09-18T18:32:32.400Z,9.70
2018-09-18T18:34:59.666Z,10.30
2018-09-18T18:37:26.956Z,9.73
2018-09-18T18:39:54.263Z,10.20
2018-09-18T18:42:21.606Z,10.00
2018-09-18T18:44:48.875Z,9.00
2018-09-18T18:47:16.211Z,10.80
2018-09-18T18:49:43.512Z,9.77
2018-09-18T18:52:10.831Z,10.20
2018-09-18T18:54:38.227Z,11.00
2018-09-18T18:57:05.661Z,12.03
2018-09-18T18:59:32.989Z,11.17
2018-09-18T19:02:00.287Z,11.60
2018-09-18T19:04:27.546Z,12.00
2018-09-18T19:06:54.910Z,12.00
2018-09-18T19:09:22.144Z,11.67
2018-09-18T19:11:49.491Z,11.60
2018-09-18T19:14:16.740Z,12.70
2018-09-18T19:16:44.043Z,12.73
2018-09-18T19:19:11.397Z,14.13
2018-09-18T19:21:38.612Z,13.83
2018-09-18T19:24:06.020Z,12.17
2018-09-18T19:26:33.453Z,12.97
2018-09-18T19:29:00.773Z,14.13
2018-09-18T19:31:28.195Z,15.00
2018-09-18T19:33:55.894Z,14.20
2018-09-18T19:36:23.207Z,12.93
2018-09-18T19:38:50.568Z,13.90
2018-09-18T19:41:17.894Z,14.57
2018-09-18T19:43:45.343Z,14.50
2018-09-18T19:46:12.893Z,12.87
2018-09-18T19:48:41.288Z,12.87
2018-09-18T19:51:08.762Z,13.47
2018-09-18T19:53:48.270Z,13.83
2018-09-18T19:56:15.535Z,14.80
2018-09-18T19:58:43.654Z,13.00
2018-09-18T20:01:10.980Z,13.03
2018-09-18T20:03:38.321Z,13.43
2018-09-18T20:06:05.654Z,15.10
2018-09-18T20:08:33.103Z,14.73
2018-09-18T20:11:00.411Z,12.03
2018-09-18T20:13:27.697Z,13.67
2018-09-18T20:15:54.994Z,14.27
2018-09-18T20:18:22.334Z,13.23
2018-09-18T20:20:49.905Z,13.43
2018-09-18T20:23:17.256Z,15.47
2018-09-18T20:25:44.664Z,15.80
2018-09-18T20:28:12.062Z,13.83
2018-09-18T20:30:39.377Z,13.37
2018-09-18T20:33:06.726Z,12.70
2018-09-18T20:35:34.046Z,13.27
2018-09-18T20:38:01.341Z,14.20
2018-09-18T20:40:28.776Z,12.30
2018-09-18T20:42:56.095Z,12.63
2018-09-18T20:45:23.355Z,14.07
2018-09-18T20:47:50.610Z,13.33
2018-09-18T20:50:21.648Z,12.90
2018-09-18T20:52:49.180Z,12.63
2018-09-18T20:55:16.615Z,13.60
2018-09-18T20:57:43.886Z,13.40
2018-09-18T21:00:11.189Z,14.33
2018-09-18T21:02:38.715Z,15.37
2018-09-18T21:05:06.048Z,15.13
2018-09-18T21:07:33.370Z,13.77
2018-09-18T21:10:00.642Z,15.70
2018-09-18T21:12:28.237Z,15.40
2018-09-18T21:14:55.562Z,13.73
2018-09-18T21:17:22.827Z,14.70
2018-09-18T21:19:50.070Z,14.40
2018-09-18T21:22:17.422Z,13.30
2018-09-18T21:24:44.665Z,16.00
2018-09-18T21:27:18.901Z,13.77
2018-09-18T21:29:46.183Z,15.70
2018-09-18T21:32:13.503Z,15.47
2018-09-18T21:34:40.745Z,14.53
2018-09-18T21:37:08.098Z,16.73
2018-09-18T21:39:35.357Z,16.10
2018-09-18T21:42:02.620Z,14.63
2018-09-18T21:44:30.160Z,16.13
2018-09-18T21:46:57.409Z,15.80
2018-09-18T21:49:24.698Z,14.60
2018-09-18T21:51:52.005Z,16.33
2018-09-18T21:54:19.239Z,15.57
2018-09-18T21:56:46.466Z,16.13
2018-09-18T21:59:13.701Z,15.50
2018-09-18T22:01:40.955Z,16.93
2018-09-18T22:04:08.191Z,14.93
2018-09-18T22:06:35.515Z,14.33
2018-09-18T22:09:03.588Z,16.00
2018-09-18T22:11:30.865Z,16.03
2018-09-18T22:13:58.138Z,16.27
2018-09-18T22:16:25.324Z,13.13
2018-09-18T22:18:52.557Z,17.47
2018-09-18T22:21:19.839Z,15.20
2018-09-18T22:23:47.106Z,14.50
2018-09-18T22:26:14.380Z,14.50
2018-09-18T22:28:41.664Z,13.70
2018-09-18T22:31:08.929Z,13.43
2018-09-18T22:33:36.210Z,14.00
2018-09-18T22:36:03.449Z,13.90
2018-09-18T22:38:30.736Z,13.70
2018-09-18T22:40:57.948Z,13.40
2018-09-18T22:43:25.163Z,15.40
2018-09-18T22:45:52.458Z,14.07
2018-09-18T22:48:19.696Z,14.30
2018-09-18T22:50:46.940Z,12.40
2018-09-18T22:53:14.205Z,13.70
2018-09-18T22:55:41.374Z,12.80
2018-09-18T22:58:08.661Z,13.27
2018-09-18T23:00:36.319Z,13.23
2018-09-18T23:03:03.613Z,14.90
2018-09-18T23:05:31.451Z,13.90
2018-09-18T23:07:59.125Z,13.53
2018-09-18T23:10:26.362Z,14.70
2018-09-18T23:12:53.645Z,15.13
2018-09-18T23:15:21.028Z,13.67
2018-09-18T23:17:49.102Z,13.90
2018-09-18T23:20:16.311Z,15.37
2018-09-18T23:22:43.592Z,13.80
2018-09-18T23:25:10.872Z,13.37
2018-09-18T23:27:38.064Z,13.17
2018-09-18T23:30:05.396Z,14.60
2018-09-18T23:32:32.662Z,13.67
2018-09-18T23:34:59.890Z,13.43
2018-09-18T23:37:27.331Z,13.57
2018-09-18T23:39:54.553Z,13.90
2018-09-18T23:42:22.030Z,13.93
2018-09-18T23:44:49.350Z,14.47
2018-09-18T23:47:16.544Z,14.77
2018-09-18T23:49:43.814Z,13.30
2018-09-18T23:52:11.036Z,13.53
2018-09-18T23:54:38.493Z,13.80
2018-09-18T23:57:05.825Z,13.83
2018-09-18T23:59:33.113Z,15.33
